Home > Products > Valid Products > TAF

000
FTUS45 KPIH 292320
TAFBYI
TAF
KBYI 292320Z 3000/3024 05010KT P6SM -SHRA VCTS OVC060CB
     FM300200 24009KT P6SM VCSH OVC090
     FM301700 27011KT P6SM VCSH OVC100
     FM302100 29012KT P6SM VCTS SCT050CB OVC100=



000
FTUS45 KPIH 292320
TAFSUN
TAF
KSUN 292320Z 3000/3024 14007KT P6SM -SHRA VCTS OVC040CB
     FM300300 31011KT P6SM VCSH BKN035 OVC070
     FM301800 11006KT P6SM VCSH SCT050 OVC100
      AMD LTD TO CLD VIS AND WIND 3006/3014=



000
FTUS45 KPIH 292320
TAFPIH
TAF
KPIH 292320Z 3000/3024 12011KT P6SM -SHRA VCTS BKN050CB OVC090
     FM300300 22008KT P6SM VCSH OVC080
     FM301700 01010KT P6SM VCSH OVC050
     FM302100 01009KT P6SM VCTS BKN050CB BKN080=



000
FTUS45 KPIH 292320
TAFIDA
TAF
KIDA 292320Z 3000/3024 21011KT P6SM -SHRA VCTS OVC040CB
     FM300300 20008KT P6SM VCSH OVC070
     FM301700 01014KT P6SM VCSH OVC060
     FM302100 02012KT P6SM VCTS SCT040CB BKN080=



000
FTUS45 KPIH 291720
TAFPIH
TAF
KPIH 291720Z 2918/3018 25008KT P6SM VCSH SCT040 OVC060
      TEMPO 2918/2920 OVC025
     FM292000 25011KT P6SM -SHRA VCTS BKN050CB OVC090
     FM300200 22008KT P6SM VCSH OVC080
     FM301700 01010KT P6SM VCSH OVC050=



000
FTUS45 KPIH 291720
TAFIDA
TAF
KIDA 291720Z 2918/3018 22011KT P6SM VCSH SCT050 OVC080
     FM292000 23011KT P6SM -SHRA VCTS OVC040CB
     FM300300 20008KT P6SM VCSH OVC070
     FM301700 01014KT P6SM VCSH OVC060=



000
FTUS45 KPIH 291720
TAFSUN
TAF
KSUN 291720Z 2918/3018 VRB06KT P6SM -SHRA SCT015 OVC035
     FM292100 14007KT P6SM -SHRA VCTS OVC040CB
     FM300300 31011KT P6SM VCSH BKN035 OVC070=



000
FTUS45 KPIH 291720
TAFBYI
TAF
KBYI 291720Z 2918/3018 27009KT P6SM VCSH OVC100
     FM292000 27011KT P6SM -SHRA VCTS OVC060CB
     FM300200 24009KT P6SM VCSH OVC090
     FM301700 27011KT P6SM VCSH OVC100=



000
FTUS45 KPIH 291720
TAFPIH
TAF
KPIH 291720Z 2918/3018 25008KT P6SM VCSH SCT040 OVC060
      TEMPO 2918/2920 OVC025
     FM292000 25011KT P6SM -SHRA VCTS BKN050CB OVC090
     FM300200 22008KT P6SM VCSH OVC080
     FM301700 01010KT P6SM VCSH OVC050=



000
FTUS45 KPIH 291720
TAFIDA
TAF
KIDA 291720Z 2918/3018 22011KT P6SM VCSH SCT050 OVC080
     FM292000 23011KT P6SM -SHRA VCTS OVC040CB
     FM300300 20008KT P6SM VCSH OVC070
     FM301700 01014KT P6SM VCSH OVC060=



000
FTUS45 KPIH 291720
TAFSUN
TAF
KSUN 291720Z 2918/3018 VRB06KT P6SM -SHRA SCT015 OVC035
     FM292100 14007KT P6SM -SHRA VCTS OVC040CB
     FM300300 31011KT P6SM VCSH BKN035 OVC070=



000
FTUS45 KPIH 291120
TAFIDA
TAF
KIDA 291120Z 2912/3012 VRB05KT P6SM VCSH SCT050 BKN100
     FM292000 23011KT P6SM -SHRA VCTS OVC040CB
     FM300300 20008KT P6SM VCSH OVC070=



000
FTUS45 KPIH 291120
TAFPIH
TAF
KPIH 291120Z 2912/3012 VRB06KT P6SM VCSH SCT050 BKN100
     FM291900 24011KT P6SM -SHRA VCTS BKN050CB
     FM300200 22008KT P6SM VCSH OVC080=



000
FTUS45 KPIH 291120
TAFSUN
TAF
KSUN 291120Z 2912/3012 VRB05KT P6SM -SHRA BKN030 OVC050
     FM291700 VRB05KT P6SM -SHRA VCTS SCT020 OVC035CB
     FM300300 31005KT P6SM VCSH BKN035 OVC070
      AMD LTD TO CLD VIS AND WIND TIL 291400=



000
FTUS45 KPIH 291120
TAFBYI
TAF
KBYI 291120Z 2912/3012 29009KT P6SM -SHRA SCT040 OVC070
     FM291600 27012KT P6SM -SHRA VCTS OVC060CB
     FM300200 27010KT P6SM VCSH OVC090=



000
FTUS45 KPIH 291120
TAFPIH
TAF
KPIH 291120Z 2912/3012 VRB06KT P6SM VCSH SCT050 BKN100
     FM291900 24011KT P6SM -SHRA VCTS BKN050CB
     FM300200 22008KT P6SM VCSH OVC080=



000
FTUS45 KPIH 291120
TAFBYI
TAF
KBYI 291120Z 2912/3012 29009KT P6SM -SHRA SCT040 OVC070
     FM291600 27012KT P6SM -SHRA VCTS OVC060CB
     FM300200 27010KT P6SM VCSH OVC090=



000
FTUS45 KPIH 291120
TAFIDA
TAF
KIDA 291120Z 2912/3012 VRB05KT P6SM VCSH SCT050 BKN100
     FM292000 23011KT P6SM -SHRA VCTS OVC040CB
     FM300300 20008KT P6SM VCSH OVC070=



000
FTUS45 KPIH 291120
TAFSUN
TAF
KSUN 291120Z 2912/3012 VRB05KT P6SM -SHRA BKN030 OVC050
     FM291700 VRB05KT P6SM -SHRA VCTS SCT020 OVC035CB
     FM300300 31005KT P6SM VCSH BKN035 OVC070
      AMD LTD TO CLD VIS AND WIND TIL 291400=



000
FTUS45 KPIH 290520
TAFPIH
TAF
KPIH 290520Z 2906/3006 VRB06KT P6SM SCT035 BKN060
     FM291400 25007KT P6SM VCSH OVC050
     FM291900 24011KT P6SM VCTS BKN050CB
     FM300200 22008KT P6SM OVC080=



000
FTUS45 KPIH 290520
TAFSUN
TAF
KSUN 290520Z 2906/3006 VRB05KT P6SM VCSH BKN025 OVC035
     FM291600 VRB05KT P6SM VCTS SCT020 OVC035CB
     FM300300 31005KT P6SM BKN035 OVC070
      AMD LTD TO CLD VIS AND WIND TIL 291400=



000
FTUS45 KPIH 290520
TAFBYI
TAF
KBYI 290520Z 2906/3006 29009KT P6SM SCT050 OVC090
     FM291600 27012KT P6SM VCTS OVC060CB
     FM300200 27010KT P6SM OVC090=



000
FTUS45 KPIH 290520
TAFIDA
TAF
KIDA 290520Z 2906/3006 VRB05KT P6SM SCT035 BKN050
     FM291500 24007KT P6SM VCSH OVC040
     FM292000 23011KT P6SM VCTS OVC040CB
     FM300300 20008KT P6SM OVC070=



000
FTUS45 KPIH 282320
TAFBYI
TAF
KBYI 282320Z 2900/2924 29008KT P6SM VCTS BKN040CB OVC050
     FM290500 25007KT P6SM SCT015 BKN050 OVC090
     FM291600 27012KT P6SM VCTS BKN060CB=



000
FTUS45 KPIH 282320
TAFIDA
TAF
KIDA 282320Z 2900/2924 02012KT P6SM BKN070
     FM290300 VRB05KT P6SM SCT035 BKN050
     FM291500 24007KT P6SM VCSH BKN050 OVC100
     FM292000 24011KT P6SM VCTS BKN050CB=



000
FTUS45 KPIH 282320
TAFPIH
TAF
KPIH 282320Z 2900/2924 02011KT P6SM BKN080
     FM290200 VRB06KT P6SM SCT035 BKN060
     FM291400 25007KT P6SM VCSH BKN040 OVC100
     FM291900 24011KT P6SM VCTS BKN040CB=



000
FTUS45 KPIH 282320
TAFSUN
TAF
KSUN 282320Z 2900/2924 VRB06KT P6SM VCSH SCT025 BKN090
     FM290600 VRB05KT P6SM BKN025 OVC035
     FM291300 VRB06KT P6SM OVC035
     FM291600 VRB05KT P6SM VCTS BKN035CB OVC100
      AMD LTD TO CLD VIS AND WIND 2906/2914=



000
FTUS45 KPIH 281720
TAFIDA
TAF
KIDA 281720Z 2818/2918 02013KT P6SM SCT060 BKN150
     FM290300 VRB05KT P6SM SCT060
     FM291700 22010KT P6SM BKN070 OVC120=



000
FTUS45 KPIH 281720
TAFSUN
TAF
KSUN 281720Z 2818/2918 14008KT P6SM SCT060
     FM282200 15007KT P6SM VCTS SCT040CB BKN060
     FM290300 31006KT P6SM VCSH BKN040=



000
FTUS45 KPIH 281720
TAFBYI
TAF
KBYI 281720Z 2818/2918 08009KT P6SM SCT080 BKN150
     FM282300 28008KT P6SM VCTS SCT050CB BKN080
     FM290500 23007KT P6SM SCT080 OVC150=



000
FTUS45 KPIH 281720
TAFPIH
TAF
KPIH 281720Z 2818/2918 04015KT P6SM SCT070 BKN150
     FM290300 VRB05KT P6SM SCT070
     FM291700 24010KT P6SM BKN080 OVC120=



000
FTUS45 KPIH 281120
TAFSUN
TAF
KSUN 281120Z 2812/2912 32007KT P6SM SCT070
     FM281700 14008KT P6SM SCT060
     FM282200 15007KT P6SM VCTS SCT040CB BKN060
     FM290300 31006KT P6SM VCSH BKN040
      AMD LTD TO CLD VIS AND WIND TIL 281400=



000
FTUS45 KPIH 281120
TAFIDA
TAF
KIDA 281120Z 2812/2912 35007KT P6SM SCT060
     FM281700 02012KT P6SM BKN060
     FM290300 VRB05KT P6SM SCT060=



000
FTUS45 KPIH 281120
TAFPIH
TAF
KPIH 281120Z 2812/2912 05010KT P6SM FEW070
     FM281900 03012KT P6SM SCT050 BKN070
     FM290300 VRB05KT P6SM SCT070=



000
FTUS45 KPIH 281120
TAFBYI
TAF
KBYI 281120Z 2812/2912 VRB06KT P6SM SCT090
     FM281900 23008KT P6SM SCT040 BKN080
     FM282300 23008KT P6SM VCTS SCT050CB BKN080
     FM290500 VRB05KT P6SM SCT080=



000
FTUS45 KPIH 280520
TAFBYI
TAF
KBYI 280520Z 2806/2906 VRB06KT P6SM SCT090
     FM281900 29012KT P6SM SCT040 BKN060=



000
FTUS45 KPIH 280520
TAFSUN
TAF
KSUN 280520Z 2806/2906 32007KT P6SM SCT090
     FM281700 14008KT P6SM SCT060
     FM282200 15007KT P6SM VCSH SCT040 BKN060
     FM290300 31006KT P6SM VCSH BKN040
      AMD LTD TO CLD VIS AND WIND TIL 281400=



000
FTUS45 KPIH 280520
TAFPIH
TAF
KPIH 280520Z 2806/2906 04010KT P6SM FEW080
     FM281900 03010KT P6SM SCT050 BKN070=



000
FTUS45 KPIH 280520
TAFIDA
TAF
KIDA 280520Z 2806/2906 03009KT P6SM SCT060
     FM281700 02011KT P6SM BKN060=



000
FTUS45 KPIH 272320
TAFIDA
TAF
KIDA 272320Z 2800/2824 03008KT P6SM SCT060
     FM281700 02011KT P6SM SCT060=



000
FTUS45 KPIH 272320
TAFSUN
TAF
KSUN 272320Z 2800/2824 VRB05KT P6SM VCSH FEW015 BKN035
     FM280400 32007KT P6SM SCT050 BKN200
     FM281700 14008KT P6SM SCT060
      AMD LTD TO CLD VIS AND WIND 2806/2814=



000
FTUS45 KPIH 272320
TAFPIH
TAF
KPIH 272320Z 2800/2824 25011KT P6SM VCSH SCT060
     FM280600 07010KT P6SM FEW080=



000
FTUS45 KPIH 272320
TAFBYI
TAF
KBYI 272320Z 2800/2824 VRB06KT P6SM VCSH FEW035 BKN050 OVC080
     FM280600 VRB06KT P6SM SCT090
     FM281900 29012KT P6SM SCT040 BKN060=



000
FTUS45 KPIH 272005 AAA
TAFSUN
TAF AMD
KSUN 272005Z 2720/2818 16006KT P6SM VCSH FEW015 SCT025 BKN050
     FM280600 32007KT P6SM SCT080 SCT120=



000
FTUS45 KPIH 272005 AAA
TAFSUN
TAF AMD
KSUN 272005Z 2720/2818 16006KT P6SM VCSH FEW015 SCT025 BKN050
     FM280600 32007KT P6SM SCT080 SCT120=



000
FTUS45 KPIH 272004 AAB
TAFPIH
TAF AMD
KPIH 272004Z 2720/2818 25010KT P6SM VCSH SCT025 BKN035 BKN060
     FM280800 VRB06KT P6SM VCSH SCT025 BKN050 OVC080=



000
FTUS45 KPIH 271743 AAA
TAFPIH
TAF AMD
KPIH 271743Z 2718/2818 20006KT P6SM VCSH FEW015 BKN025 OVC080
     FM272000 24008KT 6SM -RA SCT015 BKN025 OVC050
     FM280800 VRB06KT P6SM VCSH SCT025 BKN050 OVC080=



000
FTUS45 KPIH 271724
TAFSUN
TAF
KSUN 271724Z 2718/2818 16006KT 6SM -RA SCT015 BKN025 OVC050
     FM280600 32007KT P6SM VCSH SCT080 SCT120=



000
FTUS45 KPIH 271724
TAFIDA
TAF
KIDA 271724Z 2718/2818 VRB06KT P6SM VCSH SCT025 BKN035 BKN080
     FM280600 VRB06KT P6SM SCT120=



000
FTUS45 KPIH 271724
TAFPIH
TAF
KPIH 271724Z 2718/2818 20006KT P6SM VCSH FEW025 SCT050 BKN070
     FM272100 24008KT 6SM -RA SCT015 BKN025 OVC050
     FM280800 VRB06KT P6SM VCSH SCT025 BKN050 OVC080=



000
FTUS45 KPIH 271724
TAFBYI
TAF
KBYI 271724Z 2718/2818 VRB06KT P6SM VCSH FEW035 SCT060 OVC090
     FM280600 VRB06KT P6SM SCT090 BKN120=



000
FTUS45 KPIH 271216 AAA
TAFIDA
TAF AMD
KIDA 271216Z 2712/2812 VRB06KT P6SM VCSH BKN080
     FM272000 VRB06KT P6SM SCT120=



000
FTUS45 KPIH 271216 AAA
TAFIDA
TAF AMD
KIDA 271216Z 2712/2812 VRB06KT P6SM VCSH BKN080
     FM272000 VRB06KT P6SM SCT120=



000
FTUS45 KPIH 271120
TAFIDA
TAF
KIDA 271120Z 2712/2812 VRB06KT P6SM BKN080
     FM272000 VRB06KT P6SM SCT120=



000
FTUS45 KPIH 271120
TAFPIH
TAF
KPIH 271120Z 2712/2812 VRB06KT P6SM VCSH SCT050 BKN070
     FM272000 VRB06KT P6SM SCT080 SCT120=



000
FTUS45 KPIH 271120
TAFSUN
TAF
KSUN 271120Z 2712/2812 32006KT P6SM VCSH SCT025 BKN040
     FM271800 13008KT P6SM VCSH SCT035 BKN080
     FM280300 32007KT P6SM SCT080 SCT120
      AMD LTD TO CLD VIS AND WIND TIL 271400=



000
FTUS45 KPIH 271120
TAFBYI
TAF
KBYI 271120Z 2712/2812 VRB06KT P6SM VCSH SCT060 BKN100
     FM280000 VRB06KT P6SM SCT090 BKN120=



000
FTUS45 KPIH 271120
TAFPIH
TAF
KPIH 271120Z 2712/2812 VRB06KT P6SM VCSH SCT050 BKN070
     FM272000 VRB06KT P6SM SCT080 SCT120=



000
FTUS45 KPIH 271120
TAFIDA
TAF
KIDA 271120Z 2712/2812 VRB06KT P6SM BKN080
     FM272000 VRB06KT P6SM SCT120=



000
FTUS45 KPIH 271120
TAFSUN
TAF
KSUN 271120Z 2712/2812 32006KT P6SM VCSH SCT025 BKN040
     FM271800 13008KT P6SM VCSH SCT035 BKN080
     FM280300 32007KT P6SM SCT080 SCT120
      AMD LTD TO CLD VIS AND WIND TIL 271400=



000
FTUS45 KPIH 271120
TAFBYI
TAF
KBYI 271120Z 2712/2812 VRB06KT P6SM VCSH SCT060 BKN100
     FM280000 VRB06KT P6SM SCT090 BKN120=



000
FTUS45 KPIH 270928 AAA
TAFSUN
TAF AMD
KSUN 270928Z 2709/2806 31006KT P6SM VCSH SCT025 BKN035
      TEMPO 2709/2713 -RA OVC025
     FM271800 13008KT P6SM VCSH SCT035 BKN080
     FM280300 32007KT P6SM SCT080 BKN120
      AMD LTD TO CLD VIS AND WIND TIL 271400=



000
FTUS45 KPIH 270520
TAFIDA
TAF
KIDA 270520Z 2706/2806 35007KT P6SM VCSH SCT050 OVC090
     FM271000 VRB06KT P6SM BKN090 OVC120
     FM271800 VRB06KT P6SM SCT120=



000
FTUS45 KPIH 270520
TAFBYI
TAF
KBYI 270520Z 2706/2806 23010KT P6SM -SHRA SCT030 BKN060
     FM271100 26007KT P6SM VCSH SCT060 BKN090
     FM280400 VRB06KT P6SM SCT090 BKN120=



000
FTUS45 KPIH 270520
TAFPIH
TAF
KPIH 270520Z 2706/2806 19010KT P6SM -SHRA SCT030 OVC050
     FM271300 28007KT P6SM VCSH SCT050 BKN080
     FM280200 VRB06KT P6SM SCT080 BKN120=



000
FTUS45 KPIH 270520
TAFSUN
TAF
KSUN 270520Z 2706/2806 34007KT P6SM -SHRA SCT035 BKN050
     FM271100 31006KT P6SM VCSH SCT020 BKN035
     FM271800 13008KT P6SM VCSH SCT035 BKN080
     FM280300 32007KT P6SM SCT080 BKN120
      AMD LTD TO CLD VIS AND WIND TIL 271400=



000
FTUS45 KPIH 270258 AAC
TAFPIH
TAF AMD
KPIH 270258Z 2703/2724 25015G25KT P6SM -SHRA SCT030 BKN060
     FM271600 28007KT P6SM SCT050 BKN080=



000
FTUS45 KPIH 270110 AAB
TAFPIH
TAF AMD
KPIH 270110Z 2701/2724 26018G28KT P6SM -SHRA SCT025 BKN050
     FM270200 VRB06KT P6SM -SHRA SCT030 BKN060
     FM271600 28007KT P6SM SCT050 BKN080=



000
FTUS45 KPIH 270110 AAB
TAFPIH
TAF AMD
KPIH 270110Z 2701/2724 26018G28KT P6SM -SHRA SCT025 BKN050
     FM270200 VRB06KT P6SM -SHRA SCT030 BKN060
     FM271600 28007KT P6SM SCT050 BKN080=



000
FTUS45 KPIH 270109 AAA
TAFBYI
TAF AMD
KBYI 270109Z 2701/2724 25015G25KT P6SM -SHRA SCT030 BKN080
     FM270200 24011KT P6SM VCSH SCT030 BKN060
     FM271600 28008KT P6SM SCT050 BKN080=



    US Dept of Commerce
    National Oceanic and Atmospheric Administration
    National Weather Service
    1325 East West Highway
    Silver Spring, MD 20910
    Page Author: NWS Internet Services Team
Disclaimer
Information Quality
Credits
Glossary
Privacy Policy
Freedom of Information Act (FOIA)
About Us
Career Opportunities